sensor_id;sensor_type;location;lat;lon;timestamp;temperature;humidity
21035;DHT22;10676;50.848;3.272;2023-11-19T00:00:31;14.80;99.90
21035;DHT22;10676;50.848;3.272;2023-11-19T00:02:56;14.70;99.90
21035;DHT22;10676;50.848;3.272;2023-11-19T00:05:22;14.70;99.90
21035;DHT22;10676;50.848;3.272;2023-11-19T00:07:48;14.70;99.90
21035;DHT22;10676;50.848;3.272;2023-11-19T00:10:14;14.60;99.90
21035;DHT22;10676;50.848;3.272;2023-11-19T00:12:46;14.60;99.90
21035;DHT22;10676;50.848;3.272;2023-11-19T00:15:14;14.40;99.90
21035;DHT22;10676;50.848;3.272;2023-11-19T00:17:40;14.60;99.90
21035;DHT22;10676;50.848;3.272;2023-11-19T00:20:19;14.50;99.90
21035;DHT22;10676;50.848;3.272;2023-11-19T00:22:45;14.50;99.90
21035;DHT22;10676;50.848;3.272;2023-11-19T00:25:14;14.50;99.90
21035;DHT22;10676;50.848;3.272;2023-11-19T00:27:39;14.50;99.90
21035;DHT22;10676;50.848;3.272;2023-11-19T00:30:06;14.50;99.90
21035;DHT22;10676;50.848;3.272;2023-11-19T00:32:37;14.50;99.90
21035;DHT22;10676;50.848;3.272;2023-11-19T00:35:07;14.50;99.90
21035;DHT22;10676;50.848;3.272;2023-11-19T00:37:33;14.50;99.90
21035;DHT22;10676;50.848;3.272;2023-11-19T00:39:58;14.50;99.90
21035;DHT22;10676;50.848;3.272;2023-11-19T00:42:24;14.50;99.90
21035;DHT22;10676;50.848;3.272;2023-11-19T00:44:53;14.40;99.90
21035;DHT22;10676;50.848;3.272;2023-11-19T00:47:19;14.30;99.90
21035;DHT22;10676;50.848;3.272;2023-11-19T00:49:47;14.30;99.90
21035;DHT22;10676;50.848;3.272;2023-11-19T00:52:17;14.20;99.90
21035;DHT22;10676;50.848;3.272;2023-11-19T00:54:43;14.10;99.90
21035;DHT22;10676;50.848;3.272;2023-11-19T00:57:09;14.10;99.90
21035;DHT22;10676;50.848;3.272;2023-11-19T00:59:35;14.10;99.90
21035;DHT22;10676;50.848;3.272;2023-11-19T01:02:01;14.10;99.90
21035;DHT22;10676;50.848;3.272;2023-11-19T01:04:29;14.10;99.90
21035;DHT22;10676;50.848;3.272;2023-11-19T01:06:55;14.10;99.90
21035;DHT22;10676;50.848;3.272;2023-11-19T01:09:20;14.10;99.90
21035;DHT22;10676;50.848;3.272;2023-11-19T01:11:46;14.10;99.90
21035;DHT22;10676;50.848;3.272;2023-11-19T01:14:12;14.10;99.90
21035;DHT22;10676;50.848;3.272;2023-11-19T01:16:37;14.00;99.90
21035;DHT22;10676;50.848;3.272;2023-11-19T01:19:03;14.00;99.90
21035;DHT22;10676;50.848;3.272;2023-11-19T01:21:30;14.00;99.90
21035;DHT22;10676;50.848;3.272;2023-11-19T01:23:57;14.00;99.90
21035;DHT22;10676;50.848;3.272;2023-11-19T01:26:24;13.90;99.90
21035;DHT22;10676;50.848;3.272;2023-11-19T01:28:49;14.00;99.90
21035;DHT22;10676;50.848;3.272;2023-11-19T01:31:21;14.00;99.90
21035;DHT22;10676;50.848;3.272;2023-11-19T01:33:46;14.00;99.90
21035;DHT22;10676;50.848;3.272;2023-11-19T01:36:15;14.10;99.90
21035;DHT22;10676;50.848;3.272;2023-11-19T01:38:41;14.20;99.90
21035;DHT22;10676;50.848;3.272;2023-11-19T01:41:07;14.30;99.90
21035;DHT22;10676;50.848;3.272;2023-11-19T01:43:38;14.30;99.90
21035;DHT22;10676;50.848;3.272;2023-11-19T01:46:05;14.30;99.90
21035;DHT22;10676;50.848;3.272;2023-11-19T01:48:33;14.30;99.90
21035;DHT22;10676;50.848;3.272;2023-11-19T01:51:00;14.30;99.90
21035;DHT22;10676;50.848;3.272;2023-11-19T01:53:27;14.30;99.90
21035;DHT22;10676;50.848;3.272;2023-11-19T01:55:54;14.30;99.90
21035;DHT22;10676;50.848;3.272;2023-11-19T01:58:21;14.20;99.90
21035;DHT22;10676;50.848;3.272;2023-11-19T02:00:48;14.20;99.90
21035;DHT22;10676;50.848;3.272;2023-11-19T02:03:14;14.10;99.90
21035;DHT22;10676;50.848;3.272;2023-11-19T02:05:40;14.00;99.90
21035;DHT22;10676;50.848;3.272;2023-11-19T02:08:06;13.90;99.90
21035;DHT22;10676;50.848;3.272;2023-11-19T02:10:32;13.80;99.90
21035;DHT22;10676;50.848;3.272;2023-11-19T02:12:58;13.80;99.90
21035;DHT22;10676;50.848;3.272;2023-11-19T02:15:24;13.70;99.90
21035;DHT22;10676;50.848;3.272;2023-11-19T02:17:50;13.60;99.90
21035;DHT22;10676;50.848;3.272;2023-11-19T02:20:17;13.50;99.90
21035;DHT22;10676;50.848;3.272;2023-11-19T02:22:48;13.50;99.90
21035;DHT22;10676;50.848;3.272;2023-11-19T02:25:29;13.40;99.90
21035;DHT22;10676;50.848;3.272;2023-11-19T02:28:02;13.40;99.90
21035;DHT22;10676;50.848;3.272;2023-11-19T02:30:28;13.30;99.90
21035;DHT22;10676;50.848;3.272;2023-11-19T02:33:00;13.30;99.90
21035;DHT22;10676;50.848;3.272;2023-11-19T02:35:31;13.30;99.90
21035;DHT22;10676;50.848;3.272;2023-11-19T02:37:58;13.30;99.90
21035;DHT22;10676;50.848;3.272;2023-11-19T02:40:29;13.30;99.90
21035;DHT22;10676;50.848;3.272;2023-11-19T02:42:55;13.30;99.90
21035;DHT22;10676;50.848;3.272;2023-11-19T02:45:23;13.30;99.90
21035;DHT22;10676;50.848;3.272;2023-11-19T02:47:49;13.30;99.90
21035;DHT22;10676;50.848;3.272;2023-11-19T02:50:15;13.20;99.90
21035;DHT22;10676;50.848;3.272;2023-11-19T02:52:44;13.20;99.90
21035;DHT22;10676;50.848;3.272;2023-11-19T02:55:11;13.20;99.90
21035;DHT22;10676;50.848;3.272;2023-11-19T02:57:43;13.20;99.90
21035;DHT22;10676;50.848;3.272;2023-11-19T03:00:17;13.20;99.90
21035;DHT22;10676;50.848;3.272;2023-11-19T03:02:44;13.10;99.90
21035;DHT22;10676;50.848;3.272;2023-11-19T03:05:15;13.20;99.90
21035;DHT22;10676;50.848;3.272;2023-11-19T03:07:42;13.10;99.90
21035;DHT22;10676;50.848;3.272;2023-11-19T03:10:09;13.10;99.90
21035;DHT22;10676;50.848;3.272;2023-11-19T03:12:39;13.20;99.90
21035;DHT22;10676;50.848;3.272;2023-11-19T03:15:05;13.20;99.90
21035;DHT22;10676;50.848;3.272;2023-11-19T03:17:31;13.30;99.90
21035;DHT22;10676;50.848;3.272;2023-11-19T03:19:56;13.40;99.90
21035;DHT22;10676;50.848;3.272;2023-11-19T03:22:22;13.50;99.90
21035;DHT22;10676;50.848;3.272;2023-11-19T03:24:50;13.60;99.90
21035;DHT22;10676;50.848;3.272;2023-11-19T03:27:16;13.60;99.90
21035;DHT22;10676;50.848;3.272;2023-11-19T03:29:42;13.60;99.90
21035;DHT22;10676;50.848;3.272;2023-11-19T03:32:08;13.70;99.90
21035;DHT22;10676;50.848;3.272;2023-11-19T03:34:34;13.70;99.90
21035;DHT22;10676;50.848;3.272;2023-11-19T03:36:59;13.70;99.90
21035;DHT22;10676;50.848;3.272;2023-11-19T03:39:25;13.60;99.90
21035;DHT22;10676;50.848;3.272;2023-11-19T03:41:52;13.50;99.90
21035;DHT22;10676;50.848;3.272;2023-11-19T03:44:18;13.40;99.90
21035;DHT22;10676;50.848;3.272;2023-11-19T03:46:44;13.40;99.90
21035;DHT22;10676;50.848;3.272;2023-11-19T03:49:10;13.30;99.90
21035;DHT22;10676;50.848;3.272;2023-11-19T03:51:35;13.40;99.90
21035;DHT22;10676;50.848;3.272;2023-11-19T03:54:01;13.40;99.90
21035;DHT22;10676;50.848;3.272;2023-11-19T03:56:27;13.30;99.90
21035;DHT22;10676;50.848;3.272;2023-11-19T03:58:52;13.30;99.90
21035;DHT22;10676;50.848;3.272;2023-11-19T04:01:18;13.20;99.90
21035;DHT22;10676;50.848;3.272;2023-11-19T04:03:44;13.30;99.90
21035;DHT22;10676;50.848;3.272;2023-11-19T04:06:10;13.20;99.90
21035;DHT22;10676;50.848;3.272;2023-11-19T04:08:35;13.20;99.90
21035;DHT22;10676;50.848;3.272;2023-11-19T04:11:03;13.10;99.90
21035;DHT22;10676;50.848;3.272;2023-11-19T04:13:29;13.10;99.90
21035;DHT22;10676;50.848;3.272;2023-11-19T04:15:54;13.00;99.90
21035;DHT22;10676;50.848;3.272;2023-11-19T04:18:20;13.00;99.90
21035;DHT22;10676;50.848;3.272;2023-11-19T04:20:45;13.00;99.90
21035;DHT22;10676;50.848;3.272;2023-11-19T04:23:11;13.00;99.90
21035;DHT22;10676;50.848;3.272;2023-11-19T04:25:37;12.90;99.90
21035;DHT22;10676;50.848;3.272;2023-11-19T04:28:02;12.90;99.90
21035;DHT22;10676;50.848;3.272;2023-11-19T04:30:28;12.90;99.90
21035;DHT22;10676;50.848;3.272;2023-11-19T04:32:54;12.90;99.90
21035;DHT22;10676;50.848;3.272;2023-11-19T04:35:20;12.90;99.90
21035;DHT22;10676;50.848;3.272;2023-11-19T04:37:46;12.80;99.90
21035;DHT22;10676;50.848;3.272;2023-11-19T04:40:13;12.80;99.90
21035;DHT22;10676;50.848;3.272;2023-11-19T04:42:38;12.80;99.90
21035;DHT22;10676;50.848;3.272;2023-11-19T04:45:07;12.80;99.90
21035;DHT22;10676;50.848;3.272;2023-11-19T04:47:33;12.70;99.90
21035;DHT22;10676;50.848;3.272;2023-11-19T04:49:59;12.70;99.90
21035;DHT22;10676;50.848;3.272;2023-11-19T04:52:25;12.70;99.90
21035;DHT22;10676;50.848;3.272;2023-11-19T04:54:51;12.70;99.90
21035;DHT22;10676;50.848;3.272;2023-11-19T04:57:17;12.70;99.90
21035;DHT22;10676;50.848;3.272;2023-11-19T04:59:43;12.60;99.90
21035;DHT22;10676;50.848;3.272;2023-11-19T05:02:09;12.60;99.90
21035;DHT22;10676;50.848;3.272;2023-11-19T05:04:35;12.50;99.90
21035;DHT22;10676;50.848;3.272;2023-11-19T05:07:01;12.50;99.90
21035;DHT22;10676;50.848;3.272;2023-11-19T05:09:26;12.50;99.90
21035;DHT22;10676;50.848;3.272;2023-11-19T05:11:53;12.50;99.90
21035;DHT22;10676;50.848;3.272;2023-11-19T05:14:19;12.40;99.90
21035;DHT22;10676;50.848;3.272;2023-11-19T05:16:45;12.40;99.90
21035;DHT22;10676;50.848;3.272;2023-11-19T05:19:11;12.30;99.90
21035;DHT22;10676;50.848;3.272;2023-11-19T05:21:37;12.30;99.90
21035;DHT22;10676;50.848;3.272;2023-11-19T05:24:03;12.30;99.90
21035;DHT22;10676;50.848;3.272;2023-11-19T05:26:31;12.20;99.90
21035;DHT22;10676;50.848;3.272;2023-11-19T05:28:57;12.20;99.90
21035;DHT22;10676;50.848;3.272;2023-11-19T05:31:22;12.20;99.90
21035;DHT22;10676;50.848;3.272;2023-11-19T05:33:48;12.10;99.90
21035;DHT22;10676;50.848;3.272;2023-11-19T05:36:14;12.10;99.90
21035;DHT22;10676;50.848;3.272;2023-11-19T05:38:40;12.10;99.90
21035;DHT22;10676;50.848;3.272;2023-11-19T05:41:05;12.10;99.90
21035;DHT22;10676;50.848;3.272;2023-11-19T05:43:32;12.00;99.90
21035;DHT22;10676;50.848;3.272;2023-11-19T05:45:59;12.00;99.90
21035;DHT22;10676;50.848;3.272;2023-11-19T05:48:27;12.10;99.90
21035;DHT22;10676;50.848;3.272;2023-11-19T05:50:53;12.10;99.90
21035;DHT22;10676;50.848;3.272;2023-11-19T05:53:19;12.20;99.90
21035;DHT22;10676;50.848;3.272;2023-11-19T05:55:45;12.20;99.90
21035;DHT22;10676;50.848;3.272;2023-11-19T05:58:26;12.30;99.90
21035;DHT22;10676;50.848;3.272;2023-11-19T06:00:55;12.30;99.90
21035;DHT22;10676;50.848;3.272;2023-11-19T06:03:21;12.20;99.90
21035;DHT22;10676;50.848;3.272;2023-11-19T06:05:48;12.20;99.90
21035;DHT22;10676;50.848;3.272;2023-11-19T06:08:14;12.10;99.90
21035;DHT22;10676;50.848;3.272;2023-11-19T06:10:40;12.10;99.90
21035;DHT22;10676;50.848;3.272;2023-11-19T06:13:14;12.10;99.90
21035;DHT22;10676;50.848;3.272;2023-11-19T06:15:42;12.10;99.90
21035;DHT22;10676;50.848;3.272;2023-11-19T06:18:08;12.20;99.90
21035;DHT22;10676;50.848;3.272;2023-11-19T06:20:37;12.20;99.90
21035;DHT22;10676;50.848;3.272;2023-11-19T06:23:02;12.20;99.90
21035;DHT22;10676;50.848;3.272;2023-11-19T06:25:28;12.30;99.90
21035;DHT22;10676;50.848;3.272;2023-11-19T06:27:57;12.30;99.90
21035;DHT22;10676;50.848;3.272;2023-11-19T06:30:23;12.30;99.90
21035;DHT22;10676;50.848;3.272;2023-11-19T06:32:48;12.30;99.90
21035;DHT22;10676;50.848;3.272;2023-11-19T06:35:14;12.30;99.90
21035;DHT22;10676;50.848;3.272;2023-11-19T06:37:40;12.30;99.90
21035;DHT22;10676;50.848;3.272;2023-11-19T06:40:07;12.20;99.90
21035;DHT22;10676;50.848;3.272;2023-11-19T06:42:35;12.20;99.90
21035;DHT22;10676;50.848;3.272;2023-11-19T06:45:01;12.30;99.90
21035;DHT22;10676;50.848;3.272;2023-11-19T06:47:27;12.30;99.90
21035;DHT22;10676;50.848;3.272;2023-11-19T06:49:54;12.30;99.90
21035;DHT22;10676;50.848;3.272;2023-11-19T06:52:21;12.30;99.90
21035;DHT22;10676;50.848;3.272;2023-11-19T06:54:47;12.30;99.90
21035;DHT22;10676;50.848;3.272;2023-11-19T06:57:13;12.20;99.90
21035;DHT22;10676;50.848;3.272;2023-11-19T06:59:39;12.30;99.90
21035;DHT22;10676;50.848;3.272;2023-11-19T07:02:06;12.20;99.90
21035;DHT22;10676;50.848;3.272;2023-11-19T07:04:32;12.20;99.90
21035;DHT22;10676;50.848;3.272;2023-11-19T07:06:59;12.20;99.90
21035;DHT22;10676;50.848;3.272;2023-11-19T07:09:27;12.10;99.90
21035;DHT22;10676;50.848;3.272;2023-11-19T07:11:53;12.10;99.90
21035;DHT22;10676;50.848;3.272;2023-11-19T07:14:19;12.10;99.90
21035;DHT22;10676;50.848;3.272;2023-11-19T07:16:45;12.20;99.90
21035;DHT22;10676;50.848;3.272;2023-11-19T07:19:11;12.20;99.90
21035;DHT22;10676;50.848;3.272;2023-11-19T07:21:41;12.30;99.90
21035;DHT22;10676;50.848;3.272;2023-11-19T07:24:16;12.40;99.90
21035;DHT22;10676;50.848;3.272;2023-11-19T07:26:46;12.40;99.90
21035;DHT22;10676;50.848;3.272;2023-11-19T07:29:13;12.40;99.90
21035;DHT22;10676;50.848;3.272;2023-11-19T07:31:39;12.40;99.90
21035;DHT22;10676;50.848;3.272;2023-11-19T07:34:05;12.40;99.90
21035;DHT22;10676;50.848;3.272;2023-11-19T07:36:32;12.40;99.90
21035;DHT22;10676;50.848;3.272;2023-11-19T07:38:58;12.50;99.90
21035;DHT22;10676;50.848;3.272;2023-11-19T07:41:25;12.50;99.90
21035;DHT22;10676;50.848;3.272;2023-11-19T07:43:54;12.70;99.90
21035;DHT22;10676;50.848;3.272;2023-11-19T07:46:20;12.80;99.90
21035;DHT22;10676;50.848;3.272;2023-11-19T07:48:45;12.90;99.90
21035;DHT22;10676;50.848;3.272;2023-11-19T07:51:12;12.90;99.90
21035;DHT22;10676;50.848;3.272;2023-11-19T07:53:39;12.90;99.90
21035;DHT22;10676;50.848;3.272;2023-11-19T07:56:05;12.90;99.90
21035;DHT22;10676;50.848;3.272;2023-11-19T07:58:31;12.90;99.90
21035;DHT22;10676;50.848;3.272;2023-11-19T08:00:56;12.90;99.90
21035;DHT22;10676;50.848;3.272;2023-11-19T08:03:22;12.80;99.90
21035;DHT22;10676;50.848;3.272;2023-11-19T08:05:48;12.80;99.90
21035;DHT22;10676;50.848;3.272;2023-11-19T08:08:19;12.70;99.90
21035;DHT22;10676;50.848;3.272;2023-11-19T08:10:44;12.60;99.90
21035;DHT22;10676;50.848;3.272;2023-11-19T08:13:11;12.60;99.90
21035;DHT22;10676;50.848;3.272;2023-11-19T08:15:37;12.70;99.90
21035;DHT22;10676;50.848;3.272;2023-11-19T08:18:04;12.80;99.90
21035;DHT22;10676;50.848;3.272;2023-11-19T08:20:31;12.90;99.90
21035;DHT22;10676;50.848;3.272;2023-11-19T08:22:57;13.00;99.90
21035;DHT22;10676;50.848;3.272;2023-11-19T08:25:24;13.10;99.90
21035;DHT22;10676;50.848;3.272;2023-11-19T08:27:49;13.20;99.90
21035;DHT22;10676;50.848;3.272;2023-11-19T08:30:18;13.30;99.90
21035;DHT22;10676;50.848;3.272;2023-11-19T08:32:44;13.20;99.90
21035;DHT22;10676;50.848;3.272;2023-11-19T08:35:09;13.20;99.90
21035;DHT22;10676;50.848;3.272;2023-11-19T08:37:35;13.10;99.90
21035;DHT22;10676;50.848;3.272;2023-11-19T08:40:03;13.10;99.90
21035;DHT22;10676;50.848;3.272;2023-11-19T08:42:30;13.00;99.90
21035;DHT22;10676;50.848;3.272;2023-11-19T08:45:00;13.00;99.90
21035;DHT22;10676;50.848;3.272;2023-11-19T08:47:26;13.20;99.90
21035;DHT22;10676;50.848;3.272;2023-11-19T08:49:52;13.40;99.90
21035;DHT22;10676;50.848;3.272;2023-11-19T08:52:18;13.70;99.90
21035;DHT22;10676;50.848;3.272;2023-11-19T08:54:43;14.10;99.90
21035;DHT22;10676;50.848;3.272;2023-11-19T08:57:09;14.40;99.90
21035;DHT22;10676;50.848;3.272;2023-11-19T08:59:35;14.60;99.90
21035;DHT22;10676;50.848;3.272;2023-11-19T09:02:00;14.80;99.90
21035;DHT22;10676;50.848;3.272;2023-11-19T09:04:27;15.00;99.90
21035;DHT22;10676;50.848;3.272;2023-11-19T09:06:53;15.10;99.90
21035;DHT22;10676;50.848;3.272;2023-11-19T09:09:18;15.30;99.90
21035;DHT22;10676;50.848;3.272;2023-11-19T09:11:44;15.20;99.90
21035;DHT22;10676;50.848;3.272;2023-11-19T09:14:10;15.20;99.90
21035;DHT22;10676;50.848;3.272;2023-11-19T09:16:35;15.10;99.90
21035;DHT22;10676;50.848;3.272;2023-11-19T09:19:01;15.20;99.90
21035;DHT22;10676;50.848;3.272;2023-11-19T09:21:28;15.40;99.90
21035;DHT22;10676;50.848;3.272;2023-11-19T09:23:57;15.70;99.90
21035;DHT22;10676;50.848;3.272;2023-11-19T09:26:22;16.30;99.90
21035;DHT22;10676;50.848;3.272;2023-11-19T09:28:48;16.80;99.90
21035;DHT22;10676;50.848;3.272;2023-11-19T09:31:14;17.00;99.90
21035;DHT22;10676;50.848;3.272;2023-11-19T09:33:41;17.20;99.90
21035;DHT22;10676;50.848;3.272;2023-11-19T09:36:08;17.40;99.90
21035;DHT22;10676;50.848;3.272;2023-11-19T09:38:33;17.50;99.90
21035;DHT22;10676;50.848;3.272;2023-11-19T09:40:59;17.30;99.90
21035;DHT22;10676;50.848;3.272;2023-11-19T09:43:27;16.90;99.90
21035;DHT22;10676;50.848;3.272;2023-11-19T09:45:55;16.60;99.90
21035;DHT22;10676;50.848;3.272;2023-11-19T09:48:21;16.20;99.90
21035;DHT22;10676;50.848;3.272;2023-11-19T09:50:50;15.90;99.90
21035;DHT22;10676;50.848;3.272;2023-11-19T09:53:17;15.60;99.90
21035;DHT22;10676;50.848;3.272;2023-11-19T09:55:43;15.40;99.90
21035;DHT22;10676;50.848;3.272;2023-11-19T09:58:12;15.40;99.90
21035;DHT22;10676;50.848;3.272;2023-11-19T10:00:39;15.30;99.90
21035;DHT22;10676;50.848;3.272;2023-11-19T10:03:09;15.50;99.90
21035;DHT22;10676;50.848;3.272;2023-11-19T10:05:36;16.00;99.90
21035;DHT22;10676;50.848;3.272;2023-11-19T10:08:04;16.30;99.90
21035;DHT22;10676;50.848;3.272;2023-11-19T10:10:31;16.30;99.90
21035;DHT22;10676;50.848;3.272;2023-11-19T10:12:56;16.20;99.90
21035;DHT22;10676;50.848;3.272;2023-11-19T10:15:24;16.10;99.90
21035;DHT22;10676;50.848;3.272;2023-11-19T10:17:51;16.00;99.90
21035;DHT22;10676;50.848;3.272;2023-11-19T10:20:17;16.00;99.90
21035;DHT22;10676;50.848;3.272;2023-11-19T10:22:42;16.10;99.90
21035;DHT22;10676;50.848;3.272;2023-11-19T10:25:25;16.00;99.90
21035;DHT22;10676;50.848;3.272;2023-11-19T10:27:52;16.10;99.90
21035;DHT22;10676;50.848;3.272;2023-11-19T10:30:23;16.10;99.90
21035;DHT22;10676;50.848;3.272;2023-11-19T10:33:14;16.20;99.90
21035;DHT22;10676;50.848;3.272;2023-11-19T10:35:52;16.50;99.90
21035;DHT22;10676;50.848;3.272;2023-11-19T10:38:18;16.60;99.90
21035;DHT22;10676;50.848;3.272;2023-11-19T10:40:44;16.60;99.90
21035;DHT22;10676;50.848;3.272;2023-11-19T10:43:10;16.50;99.90
21035;DHT22;10676;50.848;3.272;2023-11-19T10:45:37;16.50;99.90
21035;DHT22;10676;50.848;3.272;2023-11-19T10:48:06;16.50;99.90
21035;DHT22;10676;50.848;3.272;2023-11-19T10:50:36;16.50;99.90
21035;DHT22;10676;50.848;3.272;2023-11-19T10:53:04;16.50;99.90
21035;DHT22;10676;50.848;3.272;2023-11-19T10:55:34;16.60;99.90
21035;DHT22;10676;50.848;3.272;2023-11-19T10:58:02;17.00;99.90
21035;DHT22;10676;50.848;3.272;2023-11-19T11:00:51;17.30;99.90
21035;DHT22;10676;50.848;3.272;2023-11-19T11:03:21;17.30;99.90
21035;DHT22;10676;50.848;3.272;2023-11-19T11:05:52;17.50;99.90
21035;DHT22;10676;50.848;3.272;2023-11-19T11:08:18;17.80;99.90
21035;DHT22;10676;50.848;3.272;2023-11-19T11:10:47;18.00;99.90
21035;DHT22;10676;50.848;3.272;2023-11-19T11:13:14;18.10;99.90
21035;DHT22;10676;50.848;3.272;2023-11-19T11:15:39;18.00;99.90
21035;DHT22;10676;50.848;3.272;2023-11-19T11:18:08;18.00;99.90
21035;DHT22;10676;50.848;3.272;2023-11-19T11:20:34;17.80;99.90
21035;DHT22;10676;50.848;3.272;2023-11-19T11:39:36;16.50;99.90
21035;DHT22;10676;50.848;3.272;2023-11-19T11:45:08;15.40;99.90
21035;DHT22;10676;50.848;3.272;2023-11-19T11:50:11;14.70;99.90
21035;DHT22;10676;50.848;3.272;2023-11-19T11:55:28;14.50;99.90
21035;DHT22;10676;50.848;3.272;2023-11-19T11:57:57;14.50;99.90
21035;DHT22;10676;50.848;3.272;2023-11-19T12:00:33;14.60;99.90
21035;DHT22;10676;50.848;3.272;2023-11-19T12:03:04;14.70;99.90
21035;DHT22;10676;50.848;3.272;2023-11-19T12:05:32;14.80;99.90
21035;DHT22;10676;50.848;3.272;2023-11-19T12:08:06;14.80;99.90
21035;DHT22;10676;50.848;3.272;2023-11-19T12:10:46;14.70;99.90
21035;DHT22;10676;50.848;3.272;2023-11-19T12:13:14;14.70;99.90
21035;DHT22;10676;50.848;3.272;2023-11-19T12:18:28;14.40;99.90
21035;DHT22;10676;50.848;3.272;2023-11-19T12:20:54;14.30;99.90
21035;DHT22;10676;50.848;3.272;2023-11-19T12:23:22;14.20;99.90
21035;DHT22;10676;50.848;3.272;2023-11-19T12:25:49;14.00;99.90
21035;DHT22;10676;50.848;3.272;2023-11-19T12:28:16;13.80;99.90
21035;DHT22;10676;50.848;3.272;2023-11-19T12:30:42;13.70;99.90
21035;DHT22;10676;50.848;3.272;2023-11-19T12:33:09;13.50;99.90
21035;DHT22;10676;50.848;3.272;2023-11-19T12:35:43;13.50;99.90
21035;DHT22;10676;50.848;3.272;2023-11-19T12:38:23;13.50;99.90
21035;DHT22;10676;50.848;3.272;2023-11-19T12:41:06;13.40;99.90
21035;DHT22;10676;50.848;3.272;2023-11-19T12:43:32;13.40;99.90
21035;DHT22;10676;50.848;3.272;2023-11-19T12:46:00;13.40;99.90
21035;DHT22;10676;50.848;3.272;2023-11-19T12:48:26;13.40;99.90
21035;DHT22;10676;50.848;3.272;2023-11-19T12:50:56;13.40;99.90
21035;DHT22;10676;50.848;3.272;2023-11-19T12:53:24;13.40;99.90
21035;DHT22;10676;50.848;3.272;2023-11-19T12:55:52;13.40;99.90
21035;DHT22;10676;50.848;3.272;2023-11-19T12:58:28;13.40;99.90
21035;DHT22;10676;50.848;3.272;2023-11-19T13:01:07;13.50;99.90
21035;DHT22;10676;50.848;3.272;2023-11-19T13:03:36;13.50;99.90
21035;DHT22;10676;50.848;3.272;2023-11-19T13:06:10;13.50;99.90
21035;DHT22;10676;50.848;3.272;2023-11-19T13:08:48;13.60;99.90
21035;DHT22;10676;50.848;3.272;2023-11-19T13:11:19;13.60;99.90
21035;DHT22;10676;50.848;3.272;2023-11-19T13:14:05;13.80;99.90
21035;DHT22;10676;50.848;3.272;2023-11-19T13:16:35;13.90;99.90
21035;DHT22;10676;50.848;3.272;2023-11-19T13:19:01;14.00;99.90
21035;DHT22;10676;50.848;3.272;2023-11-19T13:21:27;14.10;99.90
21035;DHT22;10676;50.848;3.272;2023-11-19T13:23:52;14.20;99.90
21035;DHT22;10676;50.848;3.272;2023-11-19T13:26:18;14.30;99.90
21035;DHT22;10676;50.848;3.272;2023-11-19T13:28:44;14.20;99.90
21035;DHT22;10676;50.848;3.272;2023-11-19T13:31:09;14.00;99.90
21035;DHT22;10676;50.848;3.272;2023-11-19T13:33:36;13.80;99.90
21035;DHT22;10676;50.848;3.272;2023-11-19T13:36:02;13.60;99.90
21035;DHT22;10676;50.848;3.272;2023-11-19T13:38:34;13.50;99.90
21035;DHT22;10676;50.848;3.272;2023-11-19T13:41:03;13.30;99.90
21035;DHT22;10676;50.848;3.272;2023-11-19T13:43:32;13.20;99.90
21035;DHT22;10676;50.848;3.272;2023-11-19T13:45:58;13.20;99.90
21035;DHT22;10676;50.848;3.272;2023-11-19T13:48:24;13.20;99.90
21035;DHT22;10676;50.848;3.272;2023-11-19T13:50:52;13.20;99.90
21035;DHT22;10676;50.848;3.272;2023-11-19T13:53:18;13.20;99.90
21035;DHT22;10676;50.848;3.272;2023-11-19T13:55:44;13.20;99.90
21035;DHT22;10676;50.848;3.272;2023-11-19T13:58:10;13.20;99.90
21035;DHT22;10676;50.848;3.272;2023-11-19T14:00:36;13.20;99.90
21035;DHT22;10676;50.848;3.272;2023-11-19T14:03:02;13.20;99.90
21035;DHT22;10676;50.848;3.272;2023-11-19T14:05:28;13.20;99.90
21035;DHT22;10676;50.848;3.272;2023-11-19T14:07:54;13.30;99.90
21035;DHT22;10676;50.848;3.272;2023-11-19T14:10:22;13.40;99.90
21035;DHT22;10676;50.848;3.272;2023-11-19T14:12:49;13.50;99.90
21035;DHT22;10676;50.848;3.272;2023-11-19T14:15:15;13.60;99.90
21035;DHT22;10676;50.848;3.272;2023-11-19T14:17:44;13.70;99.90
21035;DHT22;10676;50.848;3.272;2023-11-19T14:20:10;13.90;99.90
21035;DHT22;10676;50.848;3.272;2023-11-19T14:22:42;14.00;99.90
21035;DHT22;10676;50.848;3.272;2023-11-19T14:25:11;14.20;99.90
21035;DHT22;10676;50.848;3.272;2023-11-19T14:27:44;14.40;99.90
21035;DHT22;10676;50.848;3.272;2023-11-19T14:30:11;14.50;99.90
21035;DHT22;10676;50.848;3.272;2023-11-19T14:32:39;14.40;99.90
21035;DHT22;10676;50.848;3.272;2023-11-19T14:35:05;14.40;99.90
21035;DHT22;10676;50.848;3.272;2023-11-19T14:37:31;14.30;99.90
21035;DHT22;10676;50.848;3.272;2023-11-19T14:39:57;14.30;99.90
21035;DHT22;10676;50.848;3.272;2023-11-19T14:42:23;14.20;99.90
21035;DHT22;10676;50.848;3.272;2023-11-19T14:44:50;14.20;99.90
21035;DHT22;10676;50.848;3.272;2023-11-19T14:47:18;14.10;99.90
21035;DHT22;10676;50.848;3.272;2023-11-19T14:49:44;14.10;99.90
21035;DHT22;10676;50.848;3.272;2023-11-19T14:52:10;14.10;99.90
21035;DHT22;10676;50.848;3.272;2023-11-19T14:54:36;14.00;99.90
21035;DHT22;10676;50.848;3.272;2023-11-19T14:57:04;14.00;99.90
21035;DHT22;10676;50.848;3.272;2023-11-19T14:59:29;14.00;99.90
21035;DHT22;10676;50.848;3.272;2023-11-19T15:01:55;14.00;99.90
21035;DHT22;10676;50.848;3.272;2023-11-19T15:04:20;14.00;99.90
21035;DHT22;10676;50.848;3.272;2023-11-19T15:06:46;13.90;99.90
21035;DHT22;10676;50.848;3.272;2023-11-19T15:09:12;13.90;99.90
21035;DHT22;10676;50.848;3.272;2023-11-19T15:11:43;13.80;99.90
21035;DHT22;10676;50.848;3.272;2023-11-19T15:14:09;13.80;99.90
21035;DHT22;10676;50.848;3.272;2023-11-19T15:16:35;13.80;99.90
21035;DHT22;10676;50.848;3.272;2023-11-19T15:19:01;13.70;99.90
21035;DHT22;10676;50.848;3.272;2023-11-19T15:21:29;13.70;99.90
21035;DHT22;10676;50.848;3.272;2023-11-19T15:23:55;13.70;99.90
21035;DHT22;10676;50.848;3.272;2023-11-19T15:26:21;13.70;99.90
21035;DHT22;10676;50.848;3.272;2023-11-19T15:28:47;13.60;99.90
21035;DHT22;10676;50.848;3.272;2023-11-19T15:31:13;13.60;99.90
21035;DHT22;10676;50.848;3.272;2023-11-19T15:33:41;13.50;99.90
21035;DHT22;10676;50.848;3.272;2023-11-19T15:36:07;13.30;99.90
21035;DHT22;10676;50.848;3.272;2023-11-19T15:38:34;13.30;99.90
21035;DHT22;10676;50.848;3.272;2023-11-19T15:41:00;13.20;99.90
21035;DHT22;10676;50.848;3.272;2023-11-19T15:43:25;13.20;99.90
21035;DHT22;10676;50.848;3.272;2023-11-19T15:45:51;13.20;99.90
21035;DHT22;10676;50.848;3.272;2023-11-19T15:48:17;13.20;99.90
21035;DHT22;10676;50.848;3.272;2023-11-19T15:50:43;13.20;99.90
21035;DHT22;10676;50.848;3.272;2023-11-19T15:53:10;13.20;99.90
21035;DHT22;10676;50.848;3.272;2023-11-19T15:55:36;13.20;99.90
21035;DHT22;10676;50.848;3.272;2023-11-19T15:58:02;13.20;99.90